Time;durP1;ratioP1;P1;durP2;ratioP2;P2;SDS_P1;SDS_P2;PMS_P1;PMS_P2;Temp;Humidity;BMP_temperature;BMP_pressure;BME280_temperature;BME280_humidity;BME280_pressure;Samples;Min_cycle;Max_cycle;Signal;HPM_P1;HPM_P2
2023/10/08 00:01:14;;;;;;;13.83;5.03;;;;;;;16.55;81.84;102253.25;5066260;28;20028;-66
2023/10/08 00:03:41;;;;;;;19.23;4.90;;;;;;;16.51;82.25;102238.50;5057516;28;20092;-66
2023/10/08 00:06:06;;;;;;;14.82;4.68;;;;;;;16.49;82.52;102240.53;5061546;28;20027;-66
2023/10/08 00:08:33;;;;;;;12.68;4.93;;;;;;;16.51;82.68;102257.28;5065806;28;20048;-65
2023/10/08 00:11:05;;;;;;;12.93;5.07;;;;;;;16.48;82.56;102252.28;5063576;28;20024;-66
2023/10/08 00:13:31;;;;;;;13.35;4.97;;;;;;;16.43;83.16;102243.88;5062974;28;20410;-66
2023/10/08 00:15:56;;;;;;;14.18;4.93;;;;;;;16.39;83.21;102253.31;5066682;28;20032;-66
2023/10/08 00:18:23;;;;;;;13.18;5.30;;;;;;;16.33;83.77;102252.16;5064573;28;20025;-66
2023/10/08 00:21:15;;;;;;;18.30;4.72;;;;;;;16.29;83.94;102261.56;5061423;28;20031;-66
2023/10/08 00:23:52;;;;;;;15.88;5.43;;;;;;;16.25;84.41;102260.25;5065400;28;20390;-66
2023/10/08 00:26:20;;;;;;;14.27;4.80;;;;;;;16.20;84.69;102259.09;5065732;28;20078;-66
2023/10/08 00:28:51;;;;;;;13.63;5.15;;;;;;;16.16;84.43;102260.41;5063239;28;20108;-66
2023/10/08 00:31:17;;;;;;;15.25;5.10;;;;;;;16.13;85.14;102260.75;5063384;28;20031;-66
2023/10/08 00:33:44;;;;;;;12.73;5.35;;;;;;;16.09;85.65;102266.47;5066058;28;20025;-66
2023/10/08 00:36:20;;;;;;;18.88;5.47;;;;;;;16.04;85.91;102260.78;5066793;28;20074;-66
2023/10/08 00:38:50;;;;;;;15.27;5.45;;;;;;;16.03;86.05;102266.31;5064135;28;20024;-65
2023/10/08 00:41:16;;;;;;;12.82;4.70;;;;;;;15.97;86.18;102272.38;5063502;28;20040;-66
2023/10/08 00:43:42;;;;;;;19.50;5.88;;;;;;;15.89;86.53;102259.81;5062930;28;20170;-66
2023/10/08 00:46:24;;;;;;;14.02;5.40;;;;;;;15.90;86.82;102263.31;5066456;28;20109;-67
2023/10/08 00:48:54;;;;;;;15.95;5.68;;;;;;;15.79;86.65;102275.25;5061419;28;20103;-65
2023/10/08 00:53:59;;;;;;;13.80;5.38;;;;;;;15.65;87.29;102266.06;5061820;28;20044;-66
2023/10/08 00:59:15;;;;;;;18.98;5.05;;;;;;;15.55;87.78;102262.69;5063881;28;20073;-66
2023/10/08 01:01:46;;;;;;;14.88;5.82;;;;;;;15.50;88.31;102260.50;5063014;28;20028;-66
2023/10/08 01:04:16;;;;;;;15.10;5.28;;;;;;;15.50;88.42;102257.00;5064326;28;20028;-66
2023/10/08 01:06:42;;;;;;;19.38;5.45;;;;;;;15.47;88.64;102258.16;5060798;28;20470;-66
2023/10/08 01:09:22;;;;;;;16.00;4.85;;;;;;;15.49;88.73;102263.34;5065850;28;20061;-66
2023/10/08 01:12:08;;;;;;;14.27;5.50;;;;;;;15.48;88.76;102256.34;5063508;28;20032;-66
2023/10/08 01:14:34;;;;;;;13.30;5.57;;;;;;;15.47;88.81;102265.38;5063154;28;20029;-66
2023/10/08 01:17:00;;;;;;;18.20;5.07;;;;;;;15.44;88.86;102238.94;5057383;28;20031;-66
2023/10/08 01:19:26;;;;;;;16.08;4.90;;;;;;;15.41;88.79;102249.97;5059462;28;20033;-66
2023/10/08 01:21:52;;;;;;;17.17;5.07;;;;;;;15.38;88.90;102244.97;5060136;28;20088;-66
2023/10/08 01:24:18;;;;;;;12.52;5.28;;;;;;;15.36;88.87;102237.09;5059037;28;20087;-67
2023/10/08 01:26:45;;;;;;;19.02;5.47;;;;;;;15.34;88.98;102230.25;5064369;28;20025;-66
2023/10/08 01:29:18;;;;;;;17.75;5.20;;;;;;;15.32;89.22;102225.03;5059397;28;20048;-66
2023/10/08 01:31:44;;;;;;;18.70;5.80;;;;;;;15.33;89.20;102209.84;5063067;28;20048;-66
2023/10/08 01:34:15;;;;;;;20.30;5.93;;;;;;;15.29;89.37;102217.34;5061988;28;20126;-66
2023/10/08 01:36:42;;;;;;;16.13;5.30;;;;;;;15.29;89.53;102219.19;5059845;28;20020;-66
2023/10/08 01:39:10;;;;;;;14.32;5.50;;;;;;;15.26;89.23;102224.88;5065878;28;20020;-66
2023/10/08 01:41:40;;;;;;;14.15;5.63;;;;;;;15.27;89.49;102237.25;5062204;28;20127;-66
2023/10/08 01:44:08;;;;;;;15.85;5.00;;;;;;;15.25;89.47;102237.41;5028780;28;1026309;-66
2023/10/08 01:46:34;;;;;;;16.38;5.15;;;;;;;15.22;89.39;102235.09;5063466;28;20397;-66
2023/10/08 01:49:14;;;;;;;12.98;5.25;;;;;;;15.19;89.53;102241.59;5063226;28;20048;-66
2023/10/08 01:51:46;;;;;;;13.65;5.20;;;;;;;15.15;89.33;102253.66;5059174;28;20016;-66
2023/10/08 01:54:13;;;;;;;13.27;5.35;;;;;;;15.10;89.38;102257.84;5060323;28;20440;-66
2023/10/08 01:56:43;;;;;;;14.60;5.30;;;;;;;15.05;89.63;102261.00;5062305;28;20024;-66
2023/10/08 01:59:11;;;;;;;15.73;5.53;;;;;;;14.99;89.53;102269.66;5061185;28;20024;-66
2023/10/08 02:01:38;;;;;;;15.75;6.63;;;;;;;14.95;89.88;102267.50;5061709;28;20407;-66
2023/10/08 02:04:07;;;;;;;18.38;5.55;;;;;;;14.90;90.07;102265.31;5062810;28;20621;-66
2023/10/08 02:06:32;;;;;;;17.15;5.70;;;;;;;14.88;90.31;102267.31;5059949;28;20036;-66
2023/10/08 02:08:58;;;;;;;15.45;5.90;;;;;;;14.85;90.22;102264.97;5063778;28;20020;-66
2023/10/08 02:11:24;;;;;;;18.90;6.40;;;;;;;14.84;90.46;102258.78;5063211;28;20047;-66
2023/10/08 02:13:50;;;;;;;15.55;5.72;;;;;;;14.83;90.43;102258.94;5067351;28;20478;-66
2023/10/08 02:16:22;;;;;;;15.65;5.72;;;;;;;14.84;90.47;102257.94;5064403;28;20024;-66
2023/10/08 02:18:47;;;;;;;13.45;5.88;;;;;;;14.80;90.46;102261.97;5064465;28;20861;-66
2023/10/08 02:21:13;;;;;;;19.90;5.65;;;;;;;14.78;90.58;102255.94;5054906;28;20123;-66
2023/10/08 02:23:38;;;;;;;19.92;6.10;;;;;;;14.76;90.74;102249.91;5060729;28;20043;-66
2023/10/08 02:26:05;;;;;;;17.20;6.15;;;;;;;14.75;90.70;102258.94;5063682;28;20095;-66
2023/10/08 02:28:33;;;;;;;15.90;5.95;;;;;;;14.69;90.74;102264.91;5060092;28;20024;-66
2023/10/08 02:30:58;;;;;;;17.95;6.00;;;;;;;14.69;90.81;102271.09;5063754;28;20070;-66
2023/10/08 02:33:25;;;;;;;16.70;5.88;;;;;;;14.66;91.02;102270.59;5060549;28;20020;-66
2023/10/08 02:35:51;;;;;;;17.15;6.00;;;;;;;14.63;91.16;102271.75;5063254;28;20490;-66
2023/10/08 02:38:21;;;;;;;22.67;6.35;;;;;;;14.60;91.46;102285.44;5059214;28;20020;-66
2023/10/08 02:40:47;;;;;;;13.45;5.93;;;;;;;14.56;91.40;102276.91;5062642;28;20024;-66
2023/10/08 02:43:15;;;;;;;19.08;6.38;;;;;;;14.55;91.71;102287.78;5066069;28;20036;-66
2023/10/08 02:45:41;;;;;;;16.63;6.13;;;;;;;14.50;91.95;102290.94;5064533;28;20059;-66
2023/10/08 02:48:13;;;;;;;15.45;6.13;;;;;;;14.47;91.97;102293.94;5064220;28;20052;-66
2023/10/08 02:50:42;;;;;;;16.02;6.00;;;;;;;14.44;92.35;102310.25;5055852;28;20033;-66
2023/10/08 02:53:11;;;;;;;17.60;6.00;;;;;;;14.43;92.53;102292.56;5055613;28;21557;-66
2023/10/08 02:55:42;;;;;;;15.55;6.20;;;;;;;14.40;92.76;102289.34;5060505;28;20029;-66
2023/10/08 02:58:11;;;;;;;19.25;5.88;;;;;;;14.41;92.90;102286.50;5061858;28;20044;-66
2023/10/08 03:00:36;;;;;;;;;;;;;;;14.46;92.72;102284.25;5064461;28;20032;-66
2023/10/08 03:03:09;;;;;;;14.93;6.00;;;;;;;14.44;92.87;102278.19;5065716;28;19923;-66
2023/10/08 03:05:35;;;;;;;15.55;6.22;;;;;;;14.47;93.12;102277.06;5061120;28;20048;-66
2023/10/08 03:08:01;;;;;;;17.02;6.32;;;;;;;14.45;93.07;102274.50;5062067;28;20136;-66
2023/10/08 03:10:33;;;;;;;18.15;6.60;;;;;;;14.47;93.16;102283.25;5064302;28;20039;-66
2023/10/08 03:13:05;;;;;;;19.30;7.75;;;;;;;14.45;93.43;102277.19;5057721;28;20028;-66
2023/10/08 03:15:38;;;;;;;15.07;6.57;;;;;;;14.44;93.27;102283.53;5063380;28;20115;-66
2023/10/08 03:18:10;;;;;;;20.05;6.72;;;;;;;14.43;93.63;102276.50;5062361;28;20086;-66
2023/10/08 03:20:43;;;;;;;22.00;6.82;;;;;;;14.44;93.64;102290.72;5065109;28;20040;-65
2023/10/08 03:23:22;;;;;;;18.20;6.40;;;;;;;14.41;93.79;102302.53;5061872;28;20028;-66
2023/10/08 03:25:47;;;;;;;15.18;6.03;;;;;;;14.40;93.96;102297.34;5066214;28;20522;-66
2023/10/08 03:28:13;;;;;;;17.67;7.18;;;;;;;14.36;93.91;102285.31;5066795;28;20031;-66
2023/10/08 03:30:49;;;;;;;17.80;6.68;;;;;;;14.33;93.91;102286.47;5065336;28;20538;-66
2023/10/08 03:33:22;;;;;;;21.77;6.88;;;;;;;14.31;94.19;102283.13;5066466;28;20016;-66
2023/10/08 03:35:55;;;;;;;17.00;7.07;;;;;;;14.33;94.36;102286.47;5062076;28;20050;-66
2023/10/08 03:38:28;;;;;;;17.88;7.00;;;;;;;14.34;94.57;102296.16;5064236;28;20644;-66
2023/10/08 03:40:59;;;;;;;19.65;7.18;;;;;;;14.37;94.88;102301.19;5067908;28;20029;-66
2023/10/08 03:43:33;;;;;;;21.60;7.38;;;;;;;14.36;94.65;102290.66;5066094;28;20050;-66
2023/10/08 03:46:05;;;;;;;17.73;7.05;;;;;;;14.36;94.71;102302.19;5063229;28;20029;-66
2023/10/08 03:48:36;;;;;;;21.73;6.53;;;;;;;14.36;94.89;102302.19;5068991;28;20558;-66
2023/10/08 03:51:06;;;;;;;20.00;7.07;;;;;;;14.39;95.20;102314.38;5061258;28;20037;-66
2023/10/08 03:53:37;;;;;;;20.63;6.53;;;;;;;14.39;94.96;102301.03;5063279;28;20024;-66
2023/10/08 03:56:05;;;;;;;19.88;7.68;;;;;;;14.36;95.13;102291.50;5066738;28;20028;-66
2023/10/08 03:58:34;;;;;;;18.93;7.07;;;;;;;14.36;94.84;102298.66;5061921;28;20990;-66
2023/10/08 04:01:09;;;;;;;16.63;6.70;;;;;;;14.34;95.12;102290.81;5066068;28;20115;-67
2023/10/08 04:06:16;;;;;;;18.48;7.18;;;;;;;14.32;95.06;102300.84;5066954;28;20036;-66
2023/10/08 04:08:55;;;;;;;19.25;7.53;;;;;;;14.33;95.38;102310.53;5067276;28;20035;-66
2023/10/08 04:11:35;;;;;;;18.92;6.78;;;;;;;14.30;95.39;102308.16;5064312;28;20028;-66
2023/10/08 04:14:02;;;;;;;18.25;8.00;;;;;;;14.29;95.11;102311.00;5067020;28;20055;-66
2023/10/08 04:16:28;;;;;;;20.45;7.30;;;;;;;14.25;95.29;102315.84;5062492;28;20121;-66
2023/10/08 04:18:55;;;;;;;18.73;7.50;;;;;;;14.21;95.32;102325.16;5064089;28;20026;-66
2023/10/08 04:21:27;;;;;;;21.35;7.20;;;;;;;14.21;95.53;102327.84;5065856;28;20029;-66
2023/10/08 04:23:53;;;;;;;23.67;7.63;;;;;;;14.21;95.69;102325.16;5061195;28;20033;-66
2023/10/08 04:26:23;;;;;;;18.80;7.55;;;;;;;14.22;95.54;102329.50;5061441;28;20035;-66
2023/10/08 04:28:54;;;;;;;22.55;7.75;;;;;;;14.21;95.53;102330.50;5067085;28;20397;-66
2023/10/08 04:31:24;;;;;;;16.83;7.20;;;;;;;14.17;95.48;102342.50;5064668;28;20209;-66
2023/10/08 04:33:50;;;;;;;16.08;7.03;;;;;;;14.12;95.63;102342.13;5067759;28;20021;-66
2023/10/08 04:36:19;;;;;;;20.02;7.40;;;;;;;14.05;96.10;102330.41;5058301;28;20043;-66
2023/10/08 04:38:48;;;;;;;19.65;8.02;;;;;;;14.01;96.14;102348.56;5064144;28;20555;-66
2023/10/08 04:41:18;;;;;;;17.63;7.18;;;;;;;13.99;96.14;102363.06;5061757;28;20035;-66
2023/10/08 04:43:44;;;;;;;19.30;7.63;;;;;;;14.02;96.11;102373.44;5067379;28;20625;-66
2023/10/08 04:48:53;;;;;;;17.00;7.57;;;;;;;14.01;95.97;102359.25;5064539;28;20039;-66
2023/10/08 04:51:21;;;;;;;21.92;7.82;;;;;;;14.00;96.21;102354.06;5063170;28;20024;-66
2023/10/08 04:53:47;;;;;;;16.17;7.93;;;;;;;13.98;95.98;102358.72;5061397;28;20033;-66
2023/10/08 04:56:16;;;;;;;18.50;7.60;;;;;;;13.99;96.26;102357.72;5065456;28;20025;-66
2023/10/08 04:58:46;;;;;;;24.13;7.78;;;;;;;14.00;96.57;102356.75;5063728;28;20086;-66
2023/10/08 05:01:18;;;;;;;20.88;8.38;;;;;;;13.99;96.55;102352.41;5060297;28;20178;-66
2023/10/08 05:03:54;;;;;;;13.93;7.30;;;;;;;13.99;96.54;102369.25;5057723;28;20024;-66
2023/10/08 05:06:39;;;;;;;17.50;8.27;;;;;;;14.01;96.43;102369.94;5063795;28;20466;-66
2023/10/08 05:09:22;;;;;;;17.67;7.47;;;;;;;13.99;96.23;102368.41;5061938;28;20020;-66
2023/10/08 05:22:29;;;;;;;20.08;8.70;;;;;;;13.91;96.79;102375.38;5064918;28;20465;-66
2023/10/08 05:30:28;;;;;;;23.55;10.88;;;;;;;13.95;96.83;102368.72;5063057;28;20059;-66
2023/10/08 05:38:16;;;;;;;18.40;9.02;;;;;;;13.78;97.06;102364.25;5063738;28;20033;-66
2023/10/08 05:49:00;;;;;;;22.40;10.55;;;;;;;13.60;98.17;102344.75;5063715;28;20657;-65
2023/10/08 05:55:25;;;;;;;26.25;9.90;;;;;;;13.71;98.75;102359.69;5065745;28;20047;-66
2023/10/08 06:02:54;;;;;;;20.75;9.60;;;;;;;13.82;98.69;102351.41;5064292;28;20048;-66
2023/10/08 06:13:04;;;;;;;17.38;9.25;;;;;;;13.86;98.35;102388.34;5064367;28;20578;-66
2023/10/08 06:15:48;;;;;;;23.10;9.57;;;;;;;13.90;98.23;102392.41;5065297;28;20119;-66
2023/10/08 06:18:18;;;;;;;22.83;9.63;;;;;;;13.90;98.44;102376.38;5063865;28;20048;-66
2023/10/08 06:20:47;;;;;;;22.75;10.18;;;;;;;13.89;98.30;102382.72;5061476;28;20028;-66
2023/10/08 06:23:17;;;;;;;23.00;10.20;;;;;;;13.88;98.30;102390.88;5061452;28;20025;-66
2023/10/08 06:25:46;;;;;;;22.95;10.05;;;;;;;13.87;97.96;102392.69;5060891;28;20025;-66
2023/10/08 06:28:14;;;;;;;23.77;10.07;;;;;;;13.84;98.42;102379.63;5062725;28;20509;-66
2023/10/08 06:30:40;;;;;;;21.77;10.20;;;;;;;13.83;98.29;102379.78;5063362;28;20287;-66
2023/10/08 06:33:07;;;;;;;26.70;10.82;;;;;;;13.81;98.68;102389.78;5057358;28;20295;-66
2023/10/08 06:35:33;;;;;;;21.80;10.48;;;;;;;13.80;98.74;102388.97;5065612;28;20573;-66
2023/10/08 06:37:59;;;;;;;21.17;10.60;;;;;;;13.80;98.84;102380.94;5060531;28;20021;-66
2023/10/08 06:43:11;;;;;;;24.23;10.60;;;;;;;13.85;98.86;102393.84;5061100;28;20040;-66
2023/10/08 06:45:41;;;;;;;26.98;11.00;;;;;;;13.89;99.03;102406.75;5060629;28;20081;-66
2023/10/08 06:48:07;;;;;;;24.90;10.95;;;;;;;13.94;99.21;102417.81;5065741;28;20081;-66
2023/10/08 06:50:35;;;;;;;22.50;10.93;;;;;;;14.01;99.02;102427.88;5059404;28;20024;-66
2023/10/08 06:53:09;;;;;;;23.95;11.05;;;;;;;14.03;99.26;102428.53;5060062;28;20024;-66
2023/10/08 06:55:35;;;;;;;22.63;11.40;;;;;;;14.07;98.78;102436.09;5059713;28;20082;-66
2023/10/08 06:58:05;;;;;;;23.55;11.02;;;;;;;14.13;99.15;102443.47;5067793;28;20024;-66
2023/10/08 07:00:40;;;;;;;21.90;10.85;;;;;;;14.22;99.10;102442.56;5065496;28;20028;-66
2023/10/08 07:03:07;;;;;;;22.70;10.45;;;;;;;14.27;99.20;102437.59;5068433;28;20035;-66
2023/10/08 07:05:36;;;;;;;24.25;11.05;;;;;;;14.31;98.73;102432.78;5066380;28;20032;-65
2023/10/08 07:08:06;;;;;;;20.60;11.00;;;;;;;14.40;99.00;102431.84;5066461;28;20024;-66
2023/10/08 07:10:34;;;;;;;23.30;11.18;;;;;;;14.48;98.61;102439.97;5066656;28;20031;-66
2023/10/08 07:13:02;;;;;;;22.88;11.40;;;;;;;14.49;98.33;102430.94;5067427;28;20020;-66
2023/10/08 07:15:28;;;;;;;19.98;11.10;;;;;;;14.57;98.11;102449.69;5063881;28;20029;-66
2023/10/08 07:17:54;;;;;;;23.67;10.77;;;;;;;14.65;98.21;102451.56;5065585;28;20030;-66
2023/10/08 07:20:22;;;;;;;19.10;10.60;;;;;;;14.69;98.13;102446.75;5063338;28;20013;-66
2023/10/08 07:22:53;;;;;;;22.40;10.95;;;;;;;14.77;97.99;102444.16;5069413;28;20016;-65
2023/10/08 07:25:22;;;;;;;25.83;10.20;;;;;;;14.81;98.00;102435.63;5066613;28;20051;-66
2023/10/08 07:27:47;;;;;;;27.37;11.10;;;;;;;14.86;97.76;102440.50;5069547;28;20021;-66
2023/10/08 07:30:13;;;;;;;23.83;11.18;;;;;;;14.86;97.63;102438.66;5064523;28;20471;-66
2023/10/08 07:32:39;;;;;;;22.20;10.32;;;;;;;14.92;97.22;102444.38;5062670;28;20397;-65
2023/10/08 07:37:44;;;;;;;21.20;10.40;;;;;;;14.99;96.99;102454.28;5063494;28;20041;-66
2023/10/08 07:40:12;;;;;;;23.67;10.38;;;;;;;15.05;96.91;102448.31;5059751;28;20549;-66
2023/10/08 07:42:37;;;;;;;24.75;10.95;;;;;;;15.08;96.94;102450.66;5058677;28;20020;-66
2023/10/08 07:45:04;;;;;;;24.38;10.60;;;;;;;15.12;96.70;102454.69;5064274;28;20024;-66
2023/10/08 07:47:30;;;;;;;21.67;10.70;;;;;;;15.18;96.76;102458.53;5066945;28;20448;-66
2023/10/08 07:49:55;;;;;;;24.40;10.85;;;;;;;15.24;96.82;102463.25;5062082;28;20490;-66
2023/10/08 07:52:20;;;;;;;21.65;10.65;;;;;;;15.24;96.70;102463.25;5062821;28;20112;-65
2023/10/08 07:54:47;;;;;;;23.08;10.45;;;;;;;15.27;96.69;102465.59;5064479;28;20032;-66
2023/10/08 07:57:17;;;;;;;20.90;10.02;;;;;;;15.29;96.52;102473.47;5058848;28;20063;-65
2023/10/08 07:59:56;;;;;;;22.50;10.18;;;;;;;15.30;96.43;102469.78;5065679;28;20036;-66
2023/10/08 08:02:23;;;;;;;27.30;10.68;;;;;;;15.32;96.47;102482.00;5066392;28;20660;-66
2023/10/08 08:04:53;;;;;;;22.52;9.80;;;;;;;15.33;96.57;102493.56;5068173;28;20020;-66
2023/10/08 08:07:21;;;;;;;19.52;10.10;;;;;;;15.37;96.52;102490.41;5063099;28;20024;-66
2023/10/08 08:09:58;;;;;;;20.63;10.25;;;;;;;15.39;96.62;102495.59;5069045;28;20017;-66
2023/10/08 08:12:25;;;;;;;21.23;10.50;;;;;;;15.44;96.75;102494.13;5066173;28;20047;-66
2023/10/08 08:14:51;;;;;;;25.15;11.20;;;;;;;15.47;96.81;102506.34;5064409;28;20028;-67
2023/10/08 08:17:22;;;;;;;27.02;11.25;;;;;;;15.52;96.70;102506.69;5060457;28;20108;-66
2023/10/08 08:19:49;;;;;;;30.92;11.63;;;;;;;15.57;97.04;102499.00;5061802;28;20078;-66
2023/10/08 08:22:20;;;;;;;29.05;11.60;;;;;;;15.63;96.90;102503.75;5064234;28;20119;-66
2023/10/08 08:24:47;;;;;;;30.50;11.68;;;;;;;15.67;96.80;102506.94;5065135;28;20586;-66
2023/10/08 08:27:23;;;;;;;31.33;11.80;;;;;;;15.74;96.87;102510.63;5060272;28;20029;-66
2023/10/08 08:29:55;;;;;;;28.15;12.05;;;;;;;15.82;96.93;102534.75;5059772;28;20115;-66
2023/10/08 08:32:21;;;;;;;31.35;12.63;;;;;;;15.85;96.89;102530.91;5065156;28;20503;-66
2023/10/08 08:34:50;;;;;;;35.38;13.63;;;;;;;15.89;96.59;102527.72;5064857;28;20016;-66
2023/10/08 08:37:19;;;;;;;35.88;13.93;;;;;;;15.98;96.51;102528.63;5067952;28;20028;-66
2023/10/08 08:39:45;;;;;;;32.40;13.60;;;;;;;16.05;96.42;102532.31;5058747;28;20108;-66
2023/10/08 08:42:11;;;;;;;28.92;13.32;;;;;;;16.09;96.22;102530.97;5063093;28;20027;-66
2023/10/08 08:44:43;;;;;;;34.22;13.80;;;;;;;16.19;96.47;102536.16;5063352;28;20108;-66
2023/10/08 08:47:14;;;;;;;39.80;14.13;;;;;;;16.22;96.14;102533.16;5059581;28;20020;-66
2023/10/08 08:49:42;;;;;;;34.72;14.20;;;;;;;16.22;95.80;102523.28;5063887;28;20032;-67
2023/10/08 08:52:07;;;;;;;33.45;13.65;;;;;;;16.26;95.97;102534.50;5067745;28;20040;-66
2023/10/08 08:54:32;;;;;;;43.22;14.55;;;;;;;16.27;95.86;102531.66;5060881;28;20097;-66
2023/10/08 08:57:02;;;;;;;36.30;13.90;;;;;;;16.24;95.63;102534.69;5060452;28;20059;-66
2023/10/08 08:59:30;;;;;;;37.30;13.48;;;;;;;16.24;95.76;102539.19;5054883;28;20024;-66
2023/10/08 09:01:57;;;;;;;34.40;14.10;;;;;;;16.23;95.58;102541.03;5051844;28;20024;-66
2023/10/08 09:04:32;;;;;;;40.67;14.82;;;;;;;16.27;96.09;102541.56;5058414;28;20510;-66
2023/10/08 09:07:03;;;;;;;39.00;14.77;;;;;;;16.26;95.92;102545.22;5049334;28;20482;-66
2023/10/08 09:09:35;;;;;;;42.58;14.88;;;;;;;16.32;95.95;102548.09;5059255;28;20099;-66
2023/10/08 09:12:00;;;;;;;49.35;14.68;;;;;;;16.36;95.70;102544.06;5065899;28;20428;-66
2023/10/08 09:14:29;;;;;;;39.47;14.52;;;;;;;16.41;95.76;102554.28;5060284;28;20466;-66
2023/10/08 09:16:55;;;;;;;33.17;14.30;;;;;;;16.46;95.55;102554.63;5068238;28;20560;-66
2023/10/08 09:19:23;;;;;;;39.20;14.20;;;;;;;16.51;95.56;102556.81;5058210;28;20025;-66
2023/10/08 09:22:10;;;;;;;40.23;13.67;;;;;;;16.57;95.32;102561.50;5068091;28;20028;-66
2023/10/08 09:24:38;;;;;;;49.78;14.23;;;;;;;16.56;95.20;102565.19;5065245;28;20320;-66
2023/10/08 09:27:04;;;;;;;45.30;14.07;;;;;;;16.52;95.28;102570.06;5060869;28;20020;-66
2023/10/08 09:29:29;;;;;;;37.70;13.15;;;;;;;16.55;94.97;102571.56;5068409;28;20025;-66
2023/10/08 09:31:59;;;;;;;39.95;14.30;;;;;;;16.53;94.62;102568.22;5065508;28;20028;-66
2023/10/08 09:34:29;;;;;;;41.13;14.93;;;;;;;16.51;94.50;102563.00;5055675;28;20130;-66
2023/10/08 09:37:00;;;;;;;50.78;14.70;;;;;;;16.49;94.46;102556.97;5055039;28;20035;-65
2023/10/08 09:39:28;;;;;;;49.70;14.40;;;;;;;16.53;94.47;102566.38;5060536;28;20024;-65
2023/10/08 09:41:57;;;;;;;42.80;15.18;;;;;;;16.56;94.44;102562.50;5065109;28;20040;-67
2023/10/08 09:44:26;;;;;;;43.20;14.27;;;;;;;16.61;94.38;102557.47;5066784;28;20032;-67
2023/10/08 09:46:55;;;;;;;42.63;15.00;;;;;;;16.61;94.26;102542.22;5061226;28;20123;-67
2023/10/08 09:49:31;;;;;;;38.10;15.30;;;;;;;16.63;94.30;102545.56;5061506;28;20029;-67
2023/10/08 09:52:00;;;;;;;35.95;15.73;;;;;;;16.65;93.91;102548.91;5061021;28;20125;-67
2023/10/08 09:54:32;;;;;;;32.33;14.48;;;;;;;16.65;93.70;102545.41;5056057;28;20055;-67
2023/10/08 09:56:59;;;;;;;30.75;13.73;;;;;;;16.62;93.63;102543.88;5060173;28;20052;-67
2023/10/08 09:59:27;;;;;;;28.40;13.55;;;;;;;16.57;93.27;102537.38;5059002;28;20029;-67
2023/10/08 10:01:54;;;;;;;31.73;13.63;;;;;;;16.54;92.98;102535.84;5059569;28;20056;-67
2023/10/08 10:04:31;;;;;;;30.55;13.27;;;;;;;16.53;93.34;102527.97;5059674;28;20020;-67
2023/10/08 10:07:00;;;;;;;31.27;12.85;;;;;;;16.43;93.18;102522.75;5059874;28;20739;-66
2023/10/08 10:09:26;;;;;;;25.98;12.27;;;;;;;16.43;92.99;102534.34;5064447;28;20095;-67
2023/10/08 10:11:54;;;;;;;25.60;12.30;;;;;;;16.42;93.19;102547.91;5064205;28;20733;-66
2023/10/08 10:14:22;;;;;;;25.00;13.30;;;;;;;16.40;93.62;102548.06;5067280;28;20032;-66
2023/10/08 10:17:14;;;;;;;25.25;12.93;;;;;;;16.45;93.37;102555.63;5056672;28;20398;-67
2023/10/08 10:19:45;;;;;;;29.73;13.13;;;;;;;16.39;93.13;102546.41;5061759;28;20596;-67
2023/10/08 10:22:15;;;;;;;30.77;13.02;;;;;;;16.41;93.29;102544.38;5058702;28;20556;-66
2023/10/08 10:24:45;;;;;;;28.17;12.45;;;;;;;16.49;93.76;102537.38;5064550;28;20016;-67
2023/10/08 10:27:14;;;;;;;28.02;13.10;;;;;;;16.61;94.04;102538.69;5058861;28;20441;-66
2023/10/08 10:29:45;;;;;;;28.75;13.25;;;;;;;16.64;93.96;102527.63;5060045;28;20060;-67
2023/10/08 10:32:13;;;;;;;25.42;13.38;;;;;;;16.71;93.24;102531.34;5062210;28;20550;-67
2023/10/08 10:34:39;;;;;;;29.65;14.02;;;;;;;16.70;92.84;102533.19;5063433;28;20025;-67
2023/10/08 10:37:19;;;;;;;32.70;13.90;;;;;;;16.65;92.53;102545.41;5065158;28;20482;-66
2023/10/08 10:39:54;;;;;;;28.58;14.32;;;;;;;16.66;92.49;102547.94;5065550;28;20033;-66
2023/10/08 10:42:20;;;;;;;26.70;13.60;;;;;;;16.63;92.47;102550.94;5068927;28;20086;-67
2023/10/08 10:44:49;;;;;;;30.35;13.90;;;;;;;16.63;92.64;102547.41;5070426;28;20021;-66
2023/10/08 10:47:25;;;;;;;30.67;12.95;;;;;;;16.64;92.74;102554.44;5069348;28;20021;-67
2023/10/08 10:50:18;;;;;;;26.38;12.80;;;;;;;16.59;92.78;102554.13;5061843;28;20032;-67
2023/10/08 10:52:52;;;;;;;21.13;11.40;;;;;;;16.52;92.80;102562.00;5070034;28;20043;-67
2023/10/08 10:55:21;;;;;;;22.52;11.30;;;;;;;16.54;92.50;102561.84;5061939;28;20032;-67
2023/10/08 10:58:11;;;;;;;23.05;11.20;;;;;;;16.51;92.49;102556.81;5059897;28;20040;-67
2023/10/08 11:03:09;;;;;;;19.73;10.88;;;;;;;16.41;92.50;102571.22;5062513;28;20444;-67
2023/10/08 11:05:37;;;;;;;18.35;10.63;;;;;;;16.33;92.30;102562.31;5061072;28;20055;-67
2023/10/08 11:08:06;;;;;;;16.50;9.07;;;;;;;16.26;92.35;102564.84;5065505;28;20020;-67
2023/10/08 11:10:32;;;;;;;21.45;9.90;;;;;;;16.31;92.72;102557.13;5063084;28;20060;-67
2023/10/08 11:13:01;;;;;;;17.23;10.32;;;;;;;16.32;93.04;102560.66;5065981;28;20504;-67
2023/10/08 11:15:37;;;;;;;19.23;10.45;;;;;;;16.39;93.29;102569.69;5063670;28;20032;-66
2023/10/08 11:18:08;;;;;;;17.50;9.93;;;;;;;16.38;93.22;102576.06;5060085;28;20147;-67
2023/10/08 11:20:37;;;;;;;20.65;9.52;;;;;;;16.42;93.38;102569.38;5061077;28;20028;-67
2023/10/08 11:23:17;;;;;;;19.48;8.48;;;;;;;16.42;92.78;102561.31;5063651;28;20665;-67
2023/10/08 11:25:53;;;;;;;18.50;8.23;;;;;;;16.51;92.62;102556.81;5067864;28;20043;-67
2023/10/08 11:28:19;;;;;;;18.55;8.48;;;;;;;16.65;92.42;102548.09;5063717;28;20416;-67
2023/10/08 11:30:46;;;;;;;14.27;7.55;;;;;;;16.72;92.10;102541.88;5063028;28;20079;-66
2023/10/08 11:33:15;;;;;;;16.85;7.90;;;;;;;16.81;91.85;102545.44;5063560;28;20048;-67
2023/10/08 11:35:55;;;;;;;16.50;7.72;;;;;;;16.88;91.11;102543.72;5061047;28;20064;-67
2023/10/08 11:38:22;;;;;;;15.32;7.95;;;;;;;16.88;90.52;102548.25;5059053;28;20026;-67
2023/10/08 11:40:49;;;;;;;17.35;7.55;;;;;;;16.86;89.94;102547.59;5061485;28;20035;-67
2023/10/08 11:43:17;;;;;;;18.70;7.80;;;;;;;16.85;89.48;102537.88;5063811;28;20020;-67
2023/10/08 11:45:48;;;;;;;14.95;7.22;;;;;;;16.89;89.69;102542.72;5061320;28;20032;-67
2023/10/08 11:48:14;;;;;;;13.15;6.72;;;;;;;16.88;89.20;102542.88;5060695;28;20029;-67
2023/10/08 11:50:40;;;;;;;13.60;7.80;;;;;;;16.85;89.23;102537.88;5061925;28;20031;-67
2023/10/08 11:53:05;;;;;;;14.02;7.82;;;;;;;16.85;89.22;102540.56;5062242;28;20012;-67
2023/10/08 11:55:35;;;;;;;12.93;7.80;;;;;;;16.85;89.19;102530.66;5065484;28;20082;-67
2023/10/08 11:58:11;;;;;;;17.98;8.20;;;;;;;16.83;88.94;102521.94;5063494;28;20020;-67
2023/10/08 12:00:51;;;;;;;17.15;8.45;;;;;;;16.87;88.91;102517.91;5060086;28;20063;-67
2023/10/08 12:03:24;;;;;;;15.93;8.40;;;;;;;16.93;89.06;102519.91;5067111;28;20107;-67
2023/10/08 12:05:58;;;;;;;10.65;7.65;;;;;;;16.96;89.17;102522.22;5063924;28;20128;-67
2023/10/08 12:08:25;;;;;;;16.23;8.40;;;;;;;16.97;89.24;102515.03;5064015;28;20051;-66
2023/10/08 12:10:54;;;;;;;17.88;8.88;;;;;;;16.96;89.29;102514.19;5063607;28;20036;-67
2023/10/08 12:13:23;;;;;;;13.48;8.32;;;;;;;16.95;89.09;102514.34;5059710;28;20154;-67
2023/10/08 12:15:50;;;;;;;13.05;8.00;;;;;;;16.96;89.17;102510.66;5063777;28;20501;-67
2023/10/08 12:18:18;;;;;;;13.98;7.47;;;;;;;17.01;88.90;102509.13;5063383;28;20031;-67
2023/10/08 12:20:44;;;;;;;14.55;7.40;;;;;;;16.98;88.92;102517.53;5062780;28;20027;-65
2023/10/08 12:23:25;;;;;;;12.82;7.85;;;;;;;16.98;88.93;102516.69;5064586;28;20024;-65
2023/10/08 12:25:57;;;;;;;15.13;8.30;;;;;;;16.98;89.19;102509.47;5068493;28;20028;-66
2023/10/08 12:28:27;;;;;;;14.20;8.00;;;;;;;16.98;88.98;102504.09;5061978;28;20025;-65
2023/10/08 12:30:53;;;;;;;18.38;8.93;;;;;;;17.04;89.14;102511.47;5058885;28;20062;-65